Have a Safe July 4th! 

Flight Track Log - Related Links

Times and Time Zones

All times are in EDT time to prevent confusion due to time zone crossing. See the JAI807 flight status page for this flight to view local times or setup timezone preferences in your user account.

Time Position Orientation Groundspeed Altitude Reporting Facility
EDT Latitude Longitude Course Direction KTS MPH feet Rate Location/Type
Fri 09:43:56 PM 28.5480 77.0620 286° West 171 197 1,700  Level FlightAware ADS-B
Fri 09:44:51 PM 28.5230 77.0260 232° Southwest 244 281 2,700 706 Climbing FlightAware ADS-B
Fri 09:45:21 PM 28.4790 77.0180 189° South 268 308 2,700 218 Level FlightAware ADS-B
Fri 09:45:46 PM 28.4480 77.0110 191° South 274 315 2,900 1,467 Climbing FlightAware ADS-B
Fri 09:46:06 PM 28.4220 77.0060 190° South 275 316 3,800 3,000 Climbing FlightAware ADS-B
Fri 09:46:36 PM 28.3810 76.9970 191° South 279 321 5,400 2,215 Climbing FlightAware ADS-B
Fri 09:47:11 PM 28.3390 76.9890 190° South 286 329 6,200 1,200 Climbing FlightAware ADS-B
Fri 09:47:36 PM 28.3080 76.9830 190° South 284 327 6,600 873 Climbing FlightAware ADS-B
Fri 09:48:06 PM 28.2670 76.9740 191° South 286 329 7,000 1,100 Climbing FlightAware ADS-B
Fri 09:48:36 PM 28.2270 76.9660 190° South 287 330 7,700 2,291 Climbing FlightAware ADS-B
Fri 09:49:01 PM 28.1950 76.9590 191° South 283 326 9,100 2,571 Climbing FlightAware ADS-B
Fri 09:49:46 PM 28.1350 76.9470 190° South 307 353 10,700 2,047 Climbing FlightAware ADS-B
Fri 09:50:26 PM 28.0720 76.9330 191° South 346 398 12,000 2,475 Climbing FlightAware ADS-B
Fri 09:51:06 PM 28.0060 76.9200 190° South 356 410 14,000 2,775 Climbing FlightAware ADS-B
Fri 09:51:46 PM 27.9450 76.9070 191° South 370 426 15,700 2,925 Climbing FlightAware ADS-B
Fri 09:52:26 PM 27.8760 76.8930 190° South 371 427 17,900 3,000 Climbing FlightAware ADS-B
Fri 09:53:06 PM 27.8150 76.8810 190° South 371 427 19,700 2,612 Climbing FlightAware ADS-B
Fri 09:53:51 PM 27.7290 76.8630 190° South 385 443 21,600 1,267 Climbing FlightAware ADS-B
Fri 09:54:36 PM 27.6600 76.8490 190° South 385 443 21,600  Level FlightAware ADS-B
Fri 09:55:16 PM 27.6010 76.8370 190° South 385 443 21,600  Level FlightAware ADS-B
Fri 09:55:56 PM 27.5410 76.8250 190° South 385 443 21,600 3,800 Level FlightAware ADS-B
Fri 09:56:46 PM 27.4040 76.7950 191° South 424 488 27,300 3,720 Climbing FlightAware ADS-B
Fri 09:57:36 PM 27.3250 76.7750 193° South 428 493 27,800 333 Climbing FlightAware ADS-B
Fri 09:58:16 PM 27.2600 76.7580 193° South 428 493 27,800 2,400 Level FlightAware ADS-B
Fri 09:59:31 PM 27.0860 76.7280 189° South 431 496 32,400 2,609 Climbing FlightAware ADS-B
Fri 10:00:11 PM 27.0070 76.7280 180° South 430 495 32,800 267 Climbing FlightAware ADS-B
Fri 10:01:01 PM 26.9230 76.7280 180° South 430 495 32,800  Level FlightAware ADS-B
Fri 10:01:41 PM 26.8550 76.7280 180° South 430 495 32,800  Level FlightAware ADS-B
Fri 10:02:21 PM 26.7880 76.7280 180° South 430 495 32,800  Level FlightAware ADS-B
Fri 10:03:01 PM 26.7200 76.7280 180° South 430 495 32,800  Level FlightAware ADS-B
Fri 10:03:41 PM 26.6520 76.7280 180° South 430 495 32,800  Level FlightAware ADS-B
Fri 10:04:21 PM 26.5850 76.7280 180° South 430 495 32,800  Level FlightAware ADS-B
Fri 10:05:11 PM 26.5000 76.7280 180° South 430 495 32,800  Level FlightAware ADS-B
Fri 10:05:51 PM 26.4330 76.7280 180° South 430 495 32,800  Level FlightAware ADS-B
Fri 10:06:31 PM 26.3650 76.7280 180° South 430 495 32,800  Level FlightAware ADS-B
Fri 10:07:11 PM 26.2970 76.7280 180° South 430 495 32,800  Level FlightAware ADS-B
Fri 10:07:51 PM 26.2300 76.7280 180° South 430 495 32,800  Level FlightAware ADS-B
Fri 10:08:41 PM 26.1450 76.7280 180° South 430 495 32,800  Level FlightAware ADS-B
Fri 10:09:21 PM 26.0770 76.7280 180° South 430 495 32,800 135 Level FlightAware ADS-B
Fri 10:11:00 PM 25.8895 76.7435 176° South  Level Estimated
Fri 10:12:00 PM 25.7759 76.7529 176° South  Level Estimated
Fri 10:13:00 PM 25.6623 76.7623 176° South  Level Estimated
Fri 10:14:00 PM 25.5486 76.7717 176° South  Level Estimated
Fri 10:15:00 PM 25.4350 76.7810 176° South  Level Estimated
Fri 10:16:00 PM 25.3213 76.7903 176° South  Level Estimated
Fri 10:17:00 PM 25.2077 76.7996 176° South  Level Estimated
Fri 10:18:00 PM 25.0940 76.8089 176° South  Level Estimated
Fri 10:19:00 PM 24.9804 76.8182 176° South  Level Estimated
Fri 10:20:00 PM 24.8668 76.8274 176° South  Level Estimated
Fri 10:21:00 PM 24.7531 76.8367 176° South  Level Estimated
Fri 10:22:00 PM 24.6395 76.8459 176° South  Level Estimated
Fri 10:23:00 PM 24.5259 76.8551 176° South  Level Estimated
Fri 10:24:00 PM 24.4122 76.8643 176° South  Level Estimated
Fri 10:25:00 PM 24.2986 76.8734 176° South  Level Estimated
Fri 10:26:00 PM 24.1849 76.8826 176° South  Level Estimated
Fri 10:27:00 PM 24.0713 76.8917 176° South  Level Estimated
Fri 10:28:00 PM 23.9683 76.9000 176° South  Level Estimated
Fri 10:29:00 PM 23.8654 76.9082 176° South  Level Estimated
Fri 10:30:00 PM 23.7624 76.9165 176° South  Level Estimated
Fri 10:31:00 PM 23.6594 76.9247 176° South  Level Estimated
Fri 10:32:00 PM 23.5564 76.9329 176° South  Level Estimated
Fri 10:33:00 PM 23.4535 76.9411 176° South  Level Estimated
Fri 10:34:00 PM 23.3505 76.9493 176° South  Level Estimated
Fri 10:35:00 PM 23.2475 76.9575 176° South  Level Estimated
Fri 10:36:00 PM 23.1446 76.9656 176° South  Level Estimated
Fri 10:37:00 PM 23.0416 76.9738 176° South  Level Estimated
Fri 10:38:00 PM 22.9386 76.9819 176° South  Level Estimated
Fri 10:39:00 PM 22.8356 76.9900 176° South  Level Estimated
Fri 10:40:00 PM 22.7327 76.9981 176° South  Level Estimated
Fri 10:41:00 PM 22.6297 77.0062 176° South  Level Estimated
Fri 10:42:00 PM 22.5267 77.0143 176° South  Level Estimated
Fri 10:43:00 PM 22.4238 77.0224 176° South  Level Estimated
Fri 10:44:00 PM 22.3208 77.0304 176° South  Level Estimated
Fri 10:45:00 PM 22.2178 77.0385 176° South  Level Estimated
Fri 10:46:00 PM 22.1149 77.0465 176° South  Level Estimated
Fri 10:47:00 PM 22.0119 77.0546 176° South  Level Estimated
Fri 10:48:00 PM 21.9089 77.0626 176° South  Level Estimated
Fri 10:49:00 PM 21.8060 77.0706 176° South  Level Estimated
Fri 10:50:00 PM 21.7030 77.0786 176° South  Level Estimated
Fri 10:51:00 PM 21.6000 77.0865 176° South  Level Estimated
Fri 10:52:00 PM 21.4970 77.0945 176° South  Level Estimated
Fri 10:53:00 PM 21.3941 77.1025 176° South  Level Estimated
Fri 10:54:00 PM 21.2911 77.1104 176° South  Level Estimated
Fri 10:54:31 PM 20.4600 77.6360 176° South 451 519 39,000  Level FlightAware ADS-B
Fri 10:55:00 PM 21.1881 77.1184 176° South  Level Estimated
Fri 10:55:21 PM 20.3540 77.6570 169° South 451 519 39,000  Level FlightAware ADS-B
Fri 10:55:51 PM 20.2880 77.6700 170° South 451 519 39,000  Level FlightAware ADS-B
Fri 10:56:56 PM 20.1690 77.6930 170° South 452 520 39,000  Level FlightAware ADS-B
Fri 10:57:31 PM 20.0870 77.7080 170° South 453 521 39,000  Level FlightAware ADS-B
Fri 10:58:11 PM 20.0100 77.7230 170° South 452 520 39,000  Level FlightAware ADS-B
Fri 10:59:06 PM 19.9130 77.7430 169° South 452 520 39,000  Level FlightAware ADS-B
Fri 10:59:46 PM 19.8430 77.7570 169° South 452 520 39,000  Level FlightAware ADS-B
Fri 11:00:26 PM 19.7400 77.7740 171° South 448 516 39,000  Level FlightAware ADS-B
Fri 11:01:11 PM 19.6340 77.7940 170° South 446 513 39,000  Level FlightAware ADS-B
Fri 11:01:46 PM 19.5690 77.8070 169° South 445 512 39,000  Level FlightAware ADS-B
Fri 11:02:31 PM 19.4820 77.8240 170° South 445 512 39,000  Level FlightAware ADS-B
Fri 11:03:11 PM 19.4040 77.8380 170° South 448 516 39,000  Level FlightAware ADS-B
Fri 11:04:01 PM 19.2890 77.8600 170° South 450 518 39,000  Level FlightAware ADS-B
Fri 11:04:51 PM 19.1880 77.8790 170° South 451 519 39,000  Level FlightAware ADS-B
Fri 11:05:36 PM 19.0930 77.8970 170° South 451 519 39,000  Level FlightAware ADS-B
Fri 11:06:16 PM 19.0170 77.9110 170° South 452 520 39,000  Level FlightAware ADS-B
Fri 11:07:01 PM 18.9190 77.9290 170° South 451 519 39,000  Level FlightAware ADS-B
Fri 11:07:41 PM 18.8340 77.9460 169° South 449 517 39,000  Level FlightAware ADS-B
Fri 11:08:16 PM 18.7680 77.9580 170° South 450 518 39,000  Level FlightAware ADS-B
Fri 11:09:06 PM 18.6600 77.9780 170° South 451 519 39,000  Level FlightAware ADS-B
Fri 11:09:41 PM 18.5850 77.9920 170° South 452 520 39,000  Level FlightAware ADS-B
Fri 11:10:31 PM 18.4860 78.0110 170° South 453 521 39,000  Level FlightAware ADS-B
Fri 11:11:11 PM 18.4070 78.0260 170° South 454 522 39,000  Level FlightAware ADS-B
Fri 11:11:51 PM 18.3160 78.0420 171° South 454 522 39,000  Level FlightAware ADS-B
Fri 11:12:36 PM 18.2260 78.0590 170° South 455 524 39,000  Level FlightAware ADS-B
Fri 11:13:16 PM 18.1470 78.0740 170° South 456 525 39,000  Level FlightAware ADS-B
Fri 11:13:56 PM 18.0520 78.0920 170° South 457 526 39,000  Level FlightAware ADS-B
Fri 11:14:41 PM 17.9590 78.1090 170° South 457 526 39,000  Level FlightAware ADS-B
Fri 11:15:21 PM 17.8740 78.1250 170° South 456 525 39,000  Level FlightAware ADS-B
Fri 11:16:06 PM 17.7770 78.1430 170° South 454 522 39,000  Level FlightAware ADS-B
Fri 11:16:46 PM 17.6990 78.1570 170° South 453 521 39,000  Level FlightAware ADS-B
Fri 11:17:31 PM 17.6060 78.1750 170° South 450 518 39,000  Level FlightAware ADS-B
Fri 11:18:11 PM 17.5240 78.1900 170° South 449 517 39,000  Level FlightAware ADS-B
Fri 11:18:51 PM 17.4390 78.2060 170° South 449 517 39,000  Level FlightAware ADS-B
Fri 11:19:36 PM 17.3470 78.2230 170° South 448 516 39,000  Level FlightAware ADS-B
Fri 11:20:16 PM 17.2650 78.2380 170° South 447 514 39,000  Level FlightAware ADS-B
Fri 11:20:56 PM 17.1840 78.2530 170° South 446 513 39,000  Level FlightAware ADS-B
Fri 11:21:41 PM 17.0930 78.2690 170° South 447 514 39,000  Level FlightAware ADS-B
Fri 11:22:21 PM 17.0180 78.2840 169° South 446 513 39,000  Level FlightAware ADS-B
Fri 11:23:06 PM 16.9180 78.3020 170° South 446 513 39,000  Level FlightAware ADS-B
Fri 11:23:46 PM 16.8370 78.3170 170° South 446 513 39,000  Level FlightAware ADS-B
Fri 11:24:26 PM 16.7540 78.3320 170° South 446 513 39,000  Level FlightAware ADS-B
Fri 11:25:01 PM 16.6910 78.3440 170° South 446 513 39,000  Level FlightAware ADS-B
Fri 11:25:51 PM 16.5920 78.3620 170° South 446 513 39,000  Level FlightAware ADS-B
Fri 11:26:36 PM 16.5020 78.3780 170° South 446 513 39,000  Level FlightAware ADS-B
Fri 11:27:16 PM 16.4190 78.3940 170° South 446 513 39,000  Level FlightAware ADS-B
Fri 11:27:56 PM 16.3350 78.4090 170° South 447 514 39,000  Level FlightAware ADS-B
Fri 11:28:31 PM 16.2630 78.4220 170° South 447 514 39,000  Level FlightAware ADS-B
Fri 11:29:31 PM 16.1470 78.4430 170° South 447 514 39,000  Level FlightAware ADS-B
Fri 11:31:01 PM 15.9620 78.4770 170° South 445 512 39,000  Level FlightAware ADS-B
Fri 11:31:46 PM 15.8580 78.4960 170° South 444 511 39,000  Level FlightAware ADS-B
Fri 11:32:36 PM 15.7720 78.5120 170° South 444 511 39,000  Level FlightAware ADS-B
Fri 11:33:21 PM 15.6830 78.5280 170° South 445 512 39,000  Level FlightAware ADS-B
Fri 11:34:01 PM 15.6150 78.5400 170° South 445 512 39,000  Level FlightAware ADS-B
Fri 11:34:41 PM 15.5460 78.5530 170° South 445 512 39,000  Level FlightAware ADS-B
Fri 11:35:31 PM 15.4590 78.5690 170° South 445 512 39,000  Level FlightAware ADS-B
Fri 11:36:06 PM 15.3400 78.5900 170° South 448 516 39,000  Level FlightAware ADS-B
Fri 11:36:51 PM 15.2590 78.6050 170° South 448 516 39,000  Level FlightAware ADS-B
Fri 11:37:31 PM 15.1900 78.6170 170° South 448 516 39,000  Level FlightAware ADS-B
Fri 11:38:11 PM 15.1200 78.6300 170° South 448 516 39,000  Level FlightAware ADS-B
Fri 11:39:01 PM 15.0330 78.6460 170° South 448 516 39,000  Level FlightAware ADS-B
Fri 11:39:41 PM 14.9640 78.6580 170° South 448 516 39,000  Level FlightAware ADS-B
Fri 11:40:21 PM 14.8950 78.6710 170° South 448 516 39,000  Level FlightAware ADS-B
Fri 11:41:01 PM 14.8250 78.6840 170° South 448 516 39,000  Level FlightAware ADS-B
Fri 11:41:41 PM 14.7560 78.6960 170° South 448 516 39,000  Level FlightAware ADS-B
Fri 11:42:31 PM 14.6690 78.7120 170° South 448 516 39,000  Level FlightAware ADS-B
Fri 11:43:11 PM 14.6000 78.7250 170° South 448 516 39,000  Level FlightAware ADS-B
Fri 11:43:51 PM 14.5300 78.7380 170° South 448 516 39,000  Level FlightAware ADS-B
Fri 11:44:31 PM 14.4610 78.7500 170° South 448 516 39,000  Level FlightAware ADS-B
Fri 11:45:11 PM 14.3910 78.7630 170° South 448 516 39,000  Level FlightAware ADS-B
Fri 11:45:51 PM 14.3220 78.7750 170° South 448 516 39,000  Level FlightAware ADS-B
Fri 11:48:00 PM 14.1593 78.6192 223° Southwest  Level Estimated
Fri 11:49:00 PM 14.0836 78.5468 223° Southwest  Level Estimated
Fri 11:50:00 PM 14.0079 78.4744 223° Southwest  Level Estimated
Fri 11:51:00 PM 13.9322 78.4021 223° Southwest  Level Estimated
Fri 11:52:00 PM 13.8564 78.3299 223° Southwest  Level Estimated
Fri 11:53:00 PM 13.7806 78.2577 223° Southwest  Level Estimated
Fri 11:54:00 PM 13.7048 78.1855 223° Southwest  Level Estimated
Fri 11:55:00 PM 13.6290 78.1134 223° Southwest  Level Estimated
Fri 11:56:00 PM 13.5532 78.0413 223° Southwest  Level Estimated
Fri 11:57:00 PM 13.4773 77.9693 223° Southwest  Level Estimated
Fri 11:58:00 PM 13.4014 77.8973 223° Southwest  Level Estimated
Fri 11:59:00 PM 13.3255 77.8254 223° Southwest  Level Estimated
Sat 12:00:00 AM 13.2496 77.7535 223° Southwest  Level Estimated
Sat 12:01:00 AM 13.1989 77.7056 223° Southwest  Level Estimated
Sat 12:02:00 AM 13.1989 77.7056 256° West  Level Estimated
Sat 12:03:00 AM 13.1989 77.7056 256° West  Level Estimated
Sat 12:04:00 AM 13.1989 77.7056 256° West  Level Estimated
Sat 12:05:00 AM 13.1989 77.7056 256° West  Level Estimated
Sat 12:06:00 AM 13.1989 77.7056 256° West  Level Estimated
Sat 12:07:00 AM 13.1989 77.7056 256° West  Level Estimated
Sat 12:08:00 AM 13.1989 77.7056 256° West  Level Estimated
Sat 12:09:00 AM 13.1989 77.7056 256° West  Level Estimated
Sat 12:10:00 AM 13.1989 77.7056 256° West  Level Estimated
Sat 12:11:00 AM 13.1989 77.7056 256° West  Level Estimated
Sat 12:12:00 AM 13.1989 77.7056 256° West  Level Estimated
Sat 12:13:00 AM 13.1989 77.7056 256° West  Level Estimated
Sat 12:14:00 AM 13.1989 77.7056 256° West  Level Estimated
Sat 12:15:00 AM 13.1989 77.7056 256° West  Level Estimated

Login

Don't have an account? Register now (free) for customized features, flight alerts, and more!